Time;durP1;ratioP1;P1;durP2;ratioP2;P2;SDS_P1;SDS_P2;PMS_P1;PMS_P2;Temp;Humidity;BMP_temperature;BMP_pressure;BME280_temperature;BME280_humidity;BME280_pressure;Samples;Min_cycle;Max_cycle;Signal;HPM_P1;HPM_P2
2022/12/16 00:00:45;;;;;;;7.55;1.90;;;;;;;;;;4976550;28;20106;-77
2022/12/16 00:03:11;;;;;;;4.22;1.60;;;;;;;;;;4976588;28;20505;-77
2022/12/16 00:05:37;;;;;;;5.75;2.30;;;;;;;;;;4976523;28;20101;-77
2022/12/16 00:08:03;;;;;;;4.75;1.70;;;;;;;;;;4976654;28;20035;-77
2022/12/16 00:10:51;;;;;;;6.78;2.25;;;;;;;;;;4976276;28;20493;-77
2022/12/16 00:13:15;;;;;;;9.07;1.70;;;;;;;;;;4976301;28;20103;-77
2022/12/16 00:15:41;;;;;;;5.88;1.60;;;;;;;;;;4976228;28;20047;-77
2022/12/16 00:18:07;;;;;;;10.60;2.10;;;;;;;;;;4976164;28;20049;-77
2022/12/16 00:20:33;;;;;;;5.80;1.60;;;;;;;;;;4976134;28;20532;-77
2022/12/16 00:22:59;;;;;;;4.85;1.65;;;;;;;;;;4976142;28;20034;-77
2022/12/16 00:25:25;;;;;;;3.75;2.20;;;;;;;;;;4976096;28;20026;-77
2022/12/16 00:27:51;;;;;;;7.97;1.80;;;;;;;;;;4976085;28;20041;-77
2022/12/16 00:30:17;;;;;;;8.65;2.08;;;;;;;;;;4975839;28;20623;-77
2022/12/16 00:32:43;;;;;;;2.45;0.73;;;;;;;;;;4976044;28;20027;-77
2022/12/16 00:35:09;;;;;;;2.75;1.27;;;;;;;;;;4975967;28;20058;-77
2022/12/16 00:37:35;;;;;;;3.00;0.70;;;;;;;;;;4975736;28;20030;-77
2022/12/16 00:40:01;;;;;;;6.25;1.60;;;;;;;;;;4975756;28;20066;-77
2022/12/16 00:42:27;;;;;;;1.38;1.25;;;;;;;;;;4975016;28;20038;-77
2022/12/16 00:44:53;;;;;;;4.38;1.02;;;;;;;;;;4975667;28;20511;-77
2022/12/16 00:47:19;;;;;;;4.63;1.33;;;;;;;;;;4975918;28;20039;-77
2022/12/16 00:49:46;;;;;;;3.17;1.33;;;;;;;;;;4975627;28;20033;-77
2022/12/16 00:52:12;;;;;;;4.97;0.98;;;;;;;;;;4976042;28;20077;-77
2022/12/16 00:54:38;;;;;;;5.68;1.40;;;;;;;;;;4975484;28;20027;-77
2022/12/16 00:57:04;;;;;;;3.70;0.95;;;;;;;;;;4975051;28;20047;-77
2022/12/16 00:59:30;;;;;;;5.85;1.55;;;;;;;;;;4975756;28;20023;-77
2022/12/16 01:01:56;;;;;;;1.45;1.00;;;;;;;;;;4975451;28;20031;-77
2022/12/16 01:04:22;;;;;;;1.20;0.82;;;;;;;;;;4975511;28;20038;-77
2022/12/16 01:06:48;;;;;;;2.47;1.38;;;;;;;;;;4975264;28;20093;-77
2022/12/16 01:09:14;;;;;;;5.55;1.63;;;;;;;;;;4975322;28;20018;-77
2022/12/16 01:11:39;;;;;;;3.80;1.30;;;;;;;;;;4975241;28;20026;-76
2022/12/16 01:14:05;;;;;;;3.90;1.42;;;;;;;;;;4975318;28;20029;-77
2022/12/16 01:16:33;;;;;;;5.65;1.73;;;;;;;;;;4975057;28;20027;-77
2022/12/16 01:19:00;;;;;;;4.07;1.60;;;;;;;;;;4975289;28;20097;-77
2022/12/16 01:21:26;;;;;;;5.10;1.65;;;;;;;;;;4975358;28;20671;-76
2022/12/16 01:23:52;;;;;;;3.55;1.80;;;;;;;;;;4975028;28;20472;-77
2022/12/16 01:26:18;;;;;;;7.18;2.45;;;;;;;;;;4975082;28;20030;-77
2022/12/16 01:28:46;;;;;;;5.75;1.75;;;;;;;;;;4975152;28;20033;-77
2022/12/16 01:31:14;;;;;;;3.42;1.85;;;;;;;;;;4974958;28;20037;-77
2022/12/16 01:33:40;;;;;;;5.68;2.20;;;;;;;;;;4975167;28;20476;-77
2022/12/16 01:36:07;;;;;;;4.88;1.83;;;;;;;;;;4974839;28;20035;-77
2022/12/16 01:38:34;;;;;;;8.45;2.20;;;;;;;;;;4974878;28;20031;-77
2022/12/16 01:41:00;;;;;;;6.80;2.60;;;;;;;;;;4974832;28;20022;-77
2022/12/16 01:43:28;;;;;;;7.13;2.10;;;;;;;;;;4975022;28;20065;-76
2022/12/16 01:45:58;;;;;;;4.80;2.03;;;;;;;;;;4974800;28;20023;-76
2022/12/16 01:48:30;;;;;;;6.03;2.40;;;;;;;;;;4974947;28;20367;-76
2022/12/16 01:50:58;;;;;;;5.45;2.25;;;;;;;;;;4974873;28;20023;-77
2022/12/16 01:53:24;;;;;;;3.85;1.73;;;;;;;;;;4976108;28;20023;-77
2022/12/16 01:55:52;;;;;;;7.75;2.10;;;;;;;;;;4978841;28;20517;-76
2022/12/16 01:58:21;;;;;;;6.13;2.22;;;;;;;;;;4978574;28;20054;-77
2022/12/16 02:00:47;;;;;;;5.45;2.35;;;;;;;;;;4978918;28;20109;-76
2022/12/16 02:03:14;;;;;;;4.97;2.20;;;;;;;;;;4978778;28;20054;-77
2022/12/16 02:05:41;;;;;;;5.43;2.40;;;;;;;;;;4978634;28;20034;-77
2022/12/16 02:08:14;;;;;;;8.05;2.50;;;;;;;;;;4978608;28;20049;-77
2022/12/16 02:10:43;;;;;;;5.07;2.13;;;;;;;;;;4978666;28;20583;-77
2022/12/16 02:13:15;;;;;;;4.70;2.05;;;;;;;;;;4978573;28;20022;-76
2022/12/16 02:15:44;;;;;;;6.00;2.75;;;;;;;;;;4978509;28;20027;-77
2022/12/16 02:18:10;;;;;;;5.20;2.73;;;;;;;;;;4978654;28;20183;-76
2022/12/16 02:20:36;;;;;;;5.82;2.22;;;;;;;;;;4978410;28;20106;-76
2022/12/16 02:23:02;;;;;;;5.10;2.17;;;;;;;;;;4978174;28;20033;-76
2022/12/16 02:25:50;;;;;;;5.45;2.20;;;;;;;;;;4978119;28;20031;-76
2022/12/16 02:28:35;;;;;;;4.43;2.10;;;;;;;;;;4978302;28;20077;-76
2022/12/16 02:31:00;;;;;;;5.25;2.25;;;;;;;;;;4978382;28;20481;-77
2022/12/16 02:33:26;;;;;;;6.47;2.15;;;;;;;;;;4978211;28;20077;-77
2022/12/16 02:35:52;;;;;;;5.85;2.10;;;;;;;;;;4978231;28;20038;-77
2022/12/16 02:38:27;;;;;;;6.57;2.13;;;;;;;;;;4977794;28;20195;-77
2022/12/16 02:40:58;;;;;;;4.03;1.70;;;;;;;;;;4978486;28;20076;-76
2022/12/16 02:43:25;;;;;;;8.13;2.03;;;;;;;;;;4977861;28;20054;-77
2022/12/16 02:45:51;;;;;;;5.00;2.17;;;;;;;;;;4978161;28;20065;-77
2022/12/16 02:48:18;;;;;;;4.55;2.15;;;;;;;;;;4977855;28;20085;-76
2022/12/16 02:50:46;;;;;;;2.00;1.10;;;;;;;;;;4978199;28;20027;-77
2022/12/16 02:53:12;;;;;;;3.25;1.70;;;;;;;;;;4977760;28;20027;-77
2022/12/16 02:55:46;;;;;;;5.97;1.88;;;;;;;;;;4977771;28;20425;-77
2022/12/16 02:58:16;;;;;;;5.35;1.65;;;;;;;;;;4977450;28;20066;-77
2022/12/16 03:01:05;;;;;;;3.03;1.70;;;;;;;;;;4977706;28;20019;-76
2022/12/16 03:03:43;;;;;;;5.82;1.83;;;;;;;;;;4977438;28;20147;-77
2022/12/16 03:06:11;;;;;;;3.78;1.58;;;;;;;;;;4976835;28;20015;-77
2022/12/16 03:08:38;;;;;;;4.18;1.80;;;;;;;;;;4977401;28;20517;-77
2022/12/16 03:11:09;;;;;;;5.22;1.80;;;;;;;;;;4977476;28;20473;-76
2022/12/16 03:13:51;;;;;;;3.25;1.65;;;;;;;;;;4977517;28;20038;-77
2022/12/16 03:16:19;;;;;;;6.72;1.83;;;;;;;;;;4977339;28;20382;-76
2022/12/16 03:18:47;;;;;;;6.03;1.48;;;;;;;;;;4977295;28;20023;-77
2022/12/16 03:21:13;;;;;;;4.25;1.30;;;;;;;;;;4977381;28;20031;-76
2022/12/16 03:23:47;;;;;;;5.93;1.55;;;;;;;;;;4977279;28;20023;-77
2022/12/16 03:26:16;;;;;;;3.38;1.50;;;;;;;;;;4977352;28;20027;-77
2022/12/16 03:28:45;;;;;;;4.55;1.20;;;;;;;;;;4977261;28;20103;-76
2022/12/16 03:31:19;;;;;;;2.80;1.30;;;;;;;;;;4977291;28;20485;-77
2022/12/16 03:33:50;;;;;;;2.65;1.58;;;;;;;;;;4977131;28;20049;-77
2022/12/16 03:36:16;;;;;;;;;;;;;;;;;;4977512;28;20058;-77
2022/12/16 03:38:43;;;;;;;4.60;1.42;;;;;;;;;;4976896;28;19961;-76
2022/12/16 03:41:09;;;;;;;3.58;1.63;;;;;;;;;;4976902;28;20019;-77
2022/12/16 03:43:36;;;;;;;6.45;1.33;;;;;;;;;;4977038;28;20034;-77
2022/12/16 03:46:04;;;;;;;3.03;1.48;;;;;;;;;;4976827;28;20537;-77
2022/12/16 03:48:30;;;;;;;4.07;1.63;;;;;;;;;;4976880;28;20102;-77
2022/12/16 03:50:56;;;;;;;8.98;1.80;;;;;;;;;;4976776;28;20453;-76
2022/12/16 03:53:25;;;;;;;4.78;1.70;;;;;;;;;;4976950;28;20027;-77
2022/12/16 03:55:51;;;;;;;4.70;1.45;;;;;;;;;;4976950;28;20065;-77
2022/12/16 03:58:17;;;;;;;3.72;2.10;;;;;;;;;;4976225;28;20378;-77
2022/12/16 04:00:43;;;;;;;3.35;1.77;;;;;;;;;;4976642;28;20023;-77
2022/12/16 04:03:09;;;;;;;2.70;1.48;;;;;;;;;;4976520;28;20038;-77
2022/12/16 04:05:35;;;;;;;4.97;1.73;;;;;;;;;;4976545;28;20402;-77
2022/12/16 04:08:01;;;;;;;10.30;1.95;;;;;;;;;;5015446;28;20037;-77
2022/12/16 04:24:19;;;;;;;4.95;2.40;;;;;;;;;;5015527;28;20044;-76
2022/12/16 04:29:30;;;;;;;7.90;2.85;;;;;;;;;;5015212;28;20253;-76
2022/12/16 04:31:56;;;;;;;5.63;3.03;;;;;;;;;;5012809;28;20109;-77
2022/12/16 04:34:28;;;;;;;6.85;2.95;;;;;;;;;;4995378;28;20080;-77
